Empire State — WDE4431 — position and weather

sailwx.info

Track history (hours):
 
Tides and Currents Weather Stations Pressure Air Temp Water Temp Dewpoint Dewpoint Depression Visibility Wind Speed Wind Dir Waves Ship Positions

Empire State

Owner: Crowley Petroleum Services, Jacksonville, FL. More information available from US FCC via Universal Licensing System and Coast Guard Vessel Documentation Center.

Last reported at 2017-Sep-14 12:21 UTC. Time now 2017-Sep-24 10:28 UTC.
Position N 48°10' W 125°42'.
Warning: this ship's position is 9 days out of date.

Length 183 m; draft 11 m.

Type: Military. MMSI: 367353080.

Date/timePositionNaut miles runAvg speedWind from/ knotsBaromVisibWave heightAir tempDewpointWater temp
2017-Sep-14 12:21N 48°10' W 125°42'514.7
2017-Sep-14 11:59N 48°14' W 125°36'714.4
2017-Sep-14 11:30N 48°19' W 125°28'714.3
2017-Sep-14 11:01N 48°24' W 125°21'714.8
2017-Sep-14 10:31N 48°29' W 125°13'714.1
2017-Sep-14 10:01N 48°31' W 125°03'815.9
2017-Sep-14 09:31N 48°31' W 124°51'816.0
2017-Sep-14 09:01N 48°29' W 124°39'816.5
2017-Sep-14 08:31N 48°26' W 124°28'816.2
2017-Sep-14 08:01N 48°23' W 124°16'816.2
2017-Sep-14 07:30N 48°20' W 124°05'815.9
2017-Sep-14 07:00N 48°17' W 123°54'815.8
2017-Sep-14 06:30N 48°16' W 123°42'714.8
2017-Sep-14 06:00N 48°14' W 123°31'612.6
2017-Sep-14 05:30N 48°11' W 123°23'4 8.7
2017-Sep-14 05:00N 48°11' W 123°17'613.0
2017-Sep-14 04:30N 48°15' W 123°09'713.3
2017-Sep-14 03:59N 48°19' W 123°01'612.7
2017-Sep-14 03:30N 48°23' W 122°53'612.6
2017-Sep-14 03:00N 48°26' W 122°45'3 7.1
2017-Sep-14 02:30N 48°30' W 122°44'510.1
2017-Sep-14 02:00N 48°32' W 122°37'1 0.5
2017-Sep-13 23:55N 48°31' W 122°35'0 0.0
2017-Sep-13 18:40N 48°31' W 122°35'0 0.0
2017-Sep-13 11:28N 48°31' W 122°35'1 0.2
2017-Sep-13 08:21N 48°31' W 122°34'2 5.3
2017-Sep-13 08:00N 48°33' W 122°35'4 8.6
2017-Sep-13 07:30N 48°37' W 122°37'611.5
2017-Sep-13 06:59N 48°41' W 122°44'612.9
2017-Sep-13 06:30N 48°47' W 122°46'5 9.4
2017-Sep-13 06:00N 48°52' W 122°46'0 0.3
2017-Sep-13 05:30N 48°52' W 122°46'0 0.0
2017-Sep-11 20:27N 48°52' W 122°46'1 2.0
2017-Sep-11 19:59N 48°51' W 122°45'3 5.7
2017-Sep-11 19:30N 48°48' W 122°45'611.7
2017-Sep-11 18:59N 48°42' W 122°44'612.6
2017-Sep-11 18:30N 48°36' W 122°45'713.7
2017-Sep-11 18:00N 48°29' W 122°44'713.7
2017-Sep-11 17:30N 48°23' W 122°50'714.4
2017-Sep-11 17:01N 48°19' W 122°59'814.5
2017-Sep-11 16:29N 48°15' W 123°08'714.3
2017-Sep-11 16:01N 48°12' W 123°17'510.5
2017-Sep-11 15:30N 48°10' W 123°25'4 7.5
2017-Sep-11 15:00N 48°12' W 123°30'714.0
2017-Sep-11 14:30N 48°13' W 123°40'816.1
2017-Sep-11 13:59N 48°13' W 123°53'715.4
2017-Sep-11 13:30N 48°16' W 124°03'815.2
2017-Sep-11 13:00N 48°19' W 124°13'815.0
2017-Sep-11 12:30N 48°22' W 124°24'714.5
2017-Sep-11 12:00N 48°25' W 124°34'714.0
2017-Sep-11 11:30N 48°28' W 124°43'714.3
2017-Sep-11 11:00N 48°29' W 124°54'612.5
2017-Sep-11 10:30N 48°26' W 125°02'714.1
2017-Sep-11 10:00N 48°19' W 125°07'714.3
2017-Sep-11 09:30N 48°13' W 125°12'  
2017-Sep-07 18:41N 32°41' W 117°58'314.1
2017-Sep-07 18:31N 32°42' W 117°55'713.4
2017-Sep-07 18:00N 32°42' W 117°47'714.2
2017-Sep-07 17:31N 32°40' W 117°38'714.0
2017-Sep-07 17:00N 32°40' W 117°30'713.9
2017-Sep-07 16:30N 32°38' W 117°22'713.6
2017-Sep-07 16:00N 32°37' W 117°14'5 9.1
2017-Sep-07 15:30N 32°41' W 117°14'1 0.0
2017-Sep-06 15:01N 32°42' W 117°14'0 0.0
2017-Sep-06 15:00N 32°42' W 117°14'2 4.8
2017-Sep-06 14:30N 32°40' W 117°14'3 5.8
2017-Sep-06 14:00N 32°37' W 117°14'4 7.5
2017-Sep-06 13:30N 32°37' W 117°19'4 8.7
2017-Sep-06 13:00N 32°38' W 117°23'4 8.3
2017-Sep-06 12:30N 32°39' W 117°28'4 7.3
2017-Sep-06 12:00N 32°40' W 117°33'4 8.1
2017-Sep-06 11:30N 32°40' W 117°37'4 8.3
2017-Sep-06 11:01N 32°41' W 117°42'4 8.3
2017-Sep-06 10:30N 32°42' W 117°47'4 8.1
2017-Sep-06 10:00N 32°42' W 117°52'4 7.9
2017-Sep-06 09:30N 32°42' W 117°56'4 8.2
2017-Sep-06 09:00N 32°41' W 118°01'4 8.0
2017-Sep-06 08:30N 32°39' W 118°06'4 8.0
2017-Sep-06 08:00N 32°38' W 118°10'4 8.2
2017-Sep-06 07:30N 32°36' W 118°15'4 8.2
2017-Sep-06 07:00N 32°35' W 118°19'37410.6
2017-Sep-04 19:41N 37°21' W 123°14'1513.1
2017-Sep-04 18:31N 37°34' W 123°04'010.2
2017-Sep-04 18:30N 37°34' W 123°04'510.0
2017-Sep-04 18:00N 37°37' W 122°59'510.1
2017-Sep-04 17:30N 37°40' W 122°54'5 9.9
2017-Sep-04 16:59N 37°43' W 122°48'612.0
2017-Sep-04 16:30N 37°46' W 122°42'510.2
2017-Sep-04 16:00N 37°47' W 122°36'611.2
2017-Sep-04 15:30N 37°49' W 122°29'4 7.9
2017-Sep-04 15:00N 37°50' W 122°24'4 8.4
2017-Sep-04 14:30N 37°46' W 122°22'3 4.9
2017-Sep-04 14:00N 37°44' W 122°20'0 0.2
2017-Sep-04 13:30N 37°44' W 122°20'0 0.2
2017-Sep-04 13:00N 37°44' W 122°20'0 0.0
2017-Sep-04 12:30N 37°44' W 122°20'  
Track history (hours):
 
Tides and Currents Weather Stations Pressure Air Temp Water Temp Dewpoint Dewpoint Depression Visibility Wind Speed Wind Dir Waves Ship Positions

Empire State

Owner: Crowley Petroleum Services, Jacksonville, FL. More information available from US FCC via Universal Licensing System and Coast Guard Vessel Documentation Center.

Last reported at 2017-Sep-14 12:21 UTC. Time now 2017-Sep-24 10:28 UTC.
Position N 48°10' W 125°42'.
Warning: this ship's position is 9 days out of date.

Length 183 m; draft 11 m.

Type: Military. MMSI: 367353080.

Date/timePositionNaut miles runAvg speedWind from/ knotsBaromVisibWave heightAir tempDewpointWater temp
2017-Sep-14 12:21N 48°10' W 125°42'514.7
2017-Sep-14 11:59N 48°14' W 125°36'714.4
2017-Sep-14 11:30N 48°19' W 125°28'714.3
2017-Sep-14 11:01N 48°24' W 125°21'714.8
2017-Sep-14 10:31N 48°29' W 125°13'714.1
2017-Sep-14 10:01N 48°31' W 125°03'815.9
2017-Sep-14 09:31N 48°31' W 124°51'816.0
2017-Sep-14 09:01N 48°29' W 124°39'816.5
2017-Sep-14 08:31N 48°26' W 124°28'816.2
2017-Sep-14 08:01N 48°23' W 124°16'816.2
2017-Sep-14 07:30N 48°20' W 124°05'815.9
2017-Sep-14 07:00N 48°17' W 123°54'815.8
2017-Sep-14 06:30N 48°16' W 123°42'714.8
2017-Sep-14 06:00N 48°14' W 123°31'612.6
2017-Sep-14 05:30N 48°11' W 123°23'4 8.7
2017-Sep-14 05:00N 48°11' W 123°17'613.0
2017-Sep-14 04:30N 48°15' W 123°09'713.3
2017-Sep-14 03:59N 48°19' W 123°01'612.7
2017-Sep-14 03:30N 48°23' W 122°53'612.6
2017-Sep-14 03:00N 48°26' W 122°45'3 7.1
2017-Sep-14 02:30N 48°30' W 122°44'510.1
2017-Sep-14 02:00N 48°32' W 122°37'1 0.5
2017-Sep-13 23:55N 48°31' W 122°35'0 0.0
2017-Sep-13 18:40N 48°31' W 122°35'0 0.0
2017-Sep-13 11:28N 48°31' W 122°35'1 0.2
2017-Sep-13 08:21N 48°31' W 122°34'2 5.3
2017-Sep-13 08:00N 48°33' W 122°35'4 8.6
2017-Sep-13 07:30N 48°37' W 122°37'611.5
2017-Sep-13 06:59N 48°41' W 122°44'612.9
2017-Sep-13 06:30N 48°47' W 122°46'5 9.4
2017-Sep-13 06:00N 48°52' W 122°46'0 0.3
2017-Sep-13 05:30N 48°52' W 122°46'0 0.0
2017-Sep-11 20:27N 48°52' W 122°46'1 2.0
2017-Sep-11 19:59N 48°51' W 122°45'3 5.7
2017-Sep-11 19:30N 48°48' W 122°45'611.7
2017-Sep-11 18:59N 48°42' W 122°44'612.6
2017-Sep-11 18:30N 48°36' W 122°45'713.7
2017-Sep-11 18:00N 48°29' W 122°44'713.7
2017-Sep-11 17:30N 48°23' W 122°50'714.4
2017-Sep-11 17:01N 48°19' W 122°59'814.5
2017-Sep-11 16:29N 48°15' W 123°08'714.3
2017-Sep-11 16:01N 48°12' W 123°17'510.5
2017-Sep-11 15:30N 48°10' W 123°25'4 7.5
2017-Sep-11 15:00N 48°12' W 123°30'714.0
2017-Sep-11 14:30N 48°13' W 123°40'816.1
2017-Sep-11 13:59N 48°13' W 123°53'715.4
2017-Sep-11 13:30N 48°16' W 124°03'815.2
2017-Sep-11 13:00N 48°19' W 124°13'815.0
2017-Sep-11 12:30N 48°22' W 124°24'714.5
2017-Sep-11 12:00N 48°25' W 124°34'714.0
2017-Sep-11 11:30N 48°28' W 124°43'714.3
2017-Sep-11 11:00N 48°29' W 124°54'612.5
2017-Sep-11 10:30N 48°26' W 125°02'714.1
2017-Sep-11 10:00N 48°19' W 125°07'714.3
2017-Sep-11 09:30N 48°13' W 125°12'  
2017-Sep-07 18:41N 32°41' W 117°58'314.1
2017-Sep-07 18:31N 32°42' W 117°55'713.4
2017-Sep-07 18:00N 32°42' W 117°47'714.2
2017-Sep-07 17:31N 32°40' W 117°38'714.0
2017-Sep-07 17:00N 32°40' W 117°30'713.9
2017-Sep-07 16:30N 32°38' W 117°22'713.6
2017-Sep-07 16:00N 32°37' W 117°14'5 9.1
2017-Sep-07 15:30N 32°41' W 117°14'1 0.0
2017-Sep-06 15:01N 32°42' W 117°14'0 0.0
2017-Sep-06 15:00N 32°42' W 117°14'2 4.8
2017-Sep-06 14:30N 32°40' W 117°14'3 5.8
2017-Sep-06 14:00N 32°37' W 117°14'4 7.5
2017-Sep-06 13:30N 32°37' W 117°19'4 8.7
2017-Sep-06 13:00N 32°38' W 117°23'4 8.3
2017-Sep-06 12:30N 32°39' W 117°28'4 7.3
2017-Sep-06 12:00N 32°40' W 117°33'4 8.1
2017-Sep-06 11:30N 32°40' W 117°37'4 8.3
2017-Sep-06 11:01N 32°41' W 117°42'4 8.3
2017-Sep-06 10:30N 32°42' W 117°47'4 8.1
2017-Sep-06 10:00N 32°42' W 117°52'4 7.9
2017-Sep-06 09:30N 32°42' W 117°56'4 8.2
2017-Sep-06 09:00N 32°41' W 118°01'4 8.0
2017-Sep-06 08:30N 32°39' W 118°06'4 8.0
2017-Sep-06 08:00N 32°38' W 118°10'4 8.2
2017-Sep-06 07:30N 32°36' W 118°15'4 8.2
2017-Sep-06 07:00N 32°35' W 118°19'37410.6
2017-Sep-04 19:41N 37°21' W 123°14'1513.1
2017-Sep-04 18:31N 37°34' W 123°04'010.2
2017-Sep-04 18:30N 37°34' W 123°04'510.0
2017-Sep-04 18:00N 37°37' W 122°59'510.1
2017-Sep-04 17:30N 37°40' W 122°54'5 9.9
2017-Sep-04 16:59N 37°43' W 122°48'612.0
2017-Sep-04 16:30N 37°46' W 122°42'510.2
2017-Sep-04 16:00N 37°47' W 122°36'611.2
2017-Sep-04 15:30N 37°49' W 122°29'4 7.9
2017-Sep-04 15:00N 37°50' W 122°24'4 8.4
2017-Sep-04 14:30N 37°46' W 122°22'3 4.9
2017-Sep-04 14:00N 37°44' W 122°20'0 0.2
2017-Sep-04 13:30N 37°44' W 122°20'0 0.2
2017-Sep-04 13:00N 37°44' W 122°20'0 0.0
2017-Sep-04 12:30N 37°44' W 122°20'  

Dump ship's entire track history